Flight Track Log - Related Links

Times and Time Zones

All times are in EDT time to prevent confusion due to time zone crossing. See the N449ND flight status page for this flight to view local times or setup timezone preferences in your user account.

Time Position Orientation Groundspeed Altitude Reporting Facility
EDT Latitude Longitude Course Direction KTS MPH feet Rate Location/Type
Sun 09:05:29 AM 27.4983 -80.3569 139° Southeast 90 104 500  Level Miami Center
Sun 09:06:29 AM 27.4861 -80.3450 139° Southeast 69 79 6,000 600 Climbing Miami Center
Sun 09:07:29 AM 27.4608 -80.3511 192° South 79 91 1,700  Descending Miami Center
Sun 09:08:29 AM 27.4314 -80.3597 195° South 104 120 6,000 500 Climbing Miami Center
Sun 09:09:29 AM 27.4122 -80.3778 220° Southwest 104 120 2,700 -1,400 Descending Miami Center
Sun 09:10:29 AM 27.4178 -80.4083 282° West 99 114 3,200 450 Climbing Miami Center
Sun 09:11:29 AM 27.4358 -80.4322 310° West 102 117 3,600 400 Climbing Miami Center
Sun 09:12:29 AM 27.4581 -80.4589 313° West 108 124 4,000 150 Climbing Miami Center
Sun 09:13:29 AM 27.4783 -80.4875 309° West 113 130 3,900 -50 Descending Miami Center
Sun 09:14:29 AM 27.4986 -80.5139 311° West 113 130 3,900 50 Level Miami Center
Sun 09:15:29 AM 27.5167 -80.5378 310° West 108 124 4,000 50 Climbing Miami Center
Sun 09:16:29 AM 27.5369 -80.5642 311° West 108 124 4,000  Level Miami Center
Sun 09:17:29 AM 27.5611 -80.5956 311° West 115 132 4,000  Level Miami Center
Sun 09:18:29 AM 27.5833 -80.6219 314° West 110 127 4,000 -50 Level Miami Center
Sun 09:19:29 AM 27.6036 -80.6531 306° West 117 135 3,900  Descending Miami Center
Sun 09:20:29 AM 27.6197 -80.6747 310° West 110 127 4,000 50 Climbing Miami Center
Sun 09:21:29 AM 27.6419 -80.7014 313° West 105 121 4,000  Level Miami Center
Sun 09:22:29 AM 27.6619 -80.7278 311° West 105 121 4,000 -50 Level Miami Center
Sun 09:23:29 AM 27.6822 -80.7542 311° West 105 121 3,900  Descending Miami Center
Sun 09:24:29 AM 27.6983 -80.7781 307° West 105 121 4,000 50 Climbing Miami Center
Sun 09:25:29 AM 27.7164 -80.8044 308° West 105 121 4,000  Level Miami Center
Sun 09:26:29 AM 27.7344 -80.8311 307° West 110 127 4,000  Level Miami Center
Sun 09:27:29 AM 27.7525 -80.8575 308° West 110 127 4,000  Level Miami Center
Sun 09:28:29 AM 27.7747 -80.8864 311° West 110 127 4,000  Level Miami Center
Sun 09:30:32 AM 27.8167 -80.9333 315° West 104 120 4,000 -33 Level Orlando TRACON
Sun 09:31:31 AM 27.8333 -80.9667 299° West 105 121 3,900 -48 Descending Orlando TRACON
Sun 09:32:37 AM 27.8500 -80.9833 319° Northwest 106 122 3,900 45 Level Orlando TRACON
Sun 09:33:43 AM 27.8667 -81.0167 299° West 101 116 4,000 50 Climbing Orlando TRACON
Sun 09:34:38 AM 27.8833 -81.0500 300° West 106 122 4,000  Level Orlando TRACON
Sun 09:35:38 AM 27.9000 -81.0667 319° Northwest 109 125 4,000  Level Orlando TRACON
Sun 09:36:38 AM 27.9333 -81.0833 336° Northwest 108 124 4,000  Level Orlando TRACON
Sun 09:37:32 AM 27.9500 -81.1167 300° West 107 123 4,000  Level Orlando TRACON
Sun 09:38:38 AM 27.9667 -81.1333 319° Northwest 105 121 4,000  Level Orlando TRACON
Sun 09:39:38 AM 28.0000 -81.1500 336° Northwest 103 119 4,000  Level Orlando TRACON
Sun 09:40:38 AM 28.0167 -81.1667 319° Northwest 106 122 4,000  Level Orlando TRACON
Sun 09:41:38 AM 28.0500 -81.2000 319° Northwest 105 121 4,000  Level Orlando TRACON
Sun 09:42:38 AM 28.0667 -81.2167 319° Northwest 102 117 4,000  Level Orlando TRACON
Sun 09:43:33 AM 28.0833 -81.2333 319° Northwest 102 117 4,000  Level Orlando TRACON
Sun 09:44:39 AM 28.1000 -81.2667 300° West 101 116 4,000  Level Orlando TRACON
Sun 09:45:39 AM 28.1167 -81.3000 300° West 105 121 4,000  Level Orlando TRACON
Sun 09:46:39 AM 28.1333 -81.3333 300° West 105 121 4,000  Level Orlando TRACON
Sun 09:47:45 AM 28.1500 -81.3500 319° Northwest 107 123 4,000  Level Orlando TRACON
Sun 09:48:45 AM 28.1667 -81.3833 300° West 104 120 4,000  Level Orlando TRACON
Sun 09:49:40 AM 28.1833 -81.4000 319° Northwest 105 121 4,000  Level Orlando TRACON
Sun 09:50:40 AM 28.2000 -81.4333 300° West 103 119 4,000  Level Orlando TRACON
Sun 09:51:40 AM 28.2167 -81.4500 319° Northwest 103 119 4,000  Level Orlando TRACON
Sun 09:52:52 AM 28.2500 -81.4833 319° Northwest 104 120 4,000  Level Orlando TRACON
Sun 09:53:40 AM 28.2667 -81.5000 319° Northwest 103 119 4,000 50 Level Orlando TRACON
Sun 09:54:52 AM 28.2833 -81.5167 319° Northwest 104 120 4,100 45 Climbing Orlando TRACON
Sun 09:55:52 AM 28.3167 -81.5500 319° Northwest 103 119 4,100 -50 Level Orlando TRACON
Sun 09:56:52 AM 28.3333 -81.5667 319° Northwest 114 131 4,000 -50 Descending Orlando TRACON
Sun 09:57:52 AM 28.3500 -81.6000 300° West 110 127 4,000  Level Orlando TRACON
Sun 09:58:52 AM 28.3667 -81.6167 319° Northwest 113 130 4,000  Level Orlando TRACON
Sun 09:59:47 AM 28.4000 -81.6333 336° Northwest 111 128 4,000 -52 Level Orlando TRACON
Sun 10:00:47 AM 28.4167 -81.6667 300° West 112 129 3,900 -50 Descending Orlando TRACON
Sun 10:01:47 AM 28.4500 -81.6833 336° Northwest 116 133 3,900 50 Level Orlando TRACON
Sun 10:02:47 AM 28.4667 -81.7000 319° Northwest 111 128 4,000 50 Climbing Orlando TRACON
Sun 10:03:47 AM 28.5000 -81.7333 319° Northwest 116 133 4,000  Level Orlando TRACON
Sun 10:04:53 AM 28.5167 -81.7500 319° Northwest 111 128 4,000 -53 Level Orlando TRACON
Sun 10:05:41 AM 28.5333 -81.7833 300° West 114 131 3,900  Descending Orlando TRACON
Sun 10:06:53 AM 28.5667 -81.8000 336° Northwest 115 132 4,000 52 Climbing Orlando TRACON
Sun 10:07:36 AM 28.5833 -81.8167 319° Northwest 114 131 4,000  Level Orlando TRACON
Sun 10:08:36 AM 28.6000 -81.8500 300° West 116 133 4,000 -29 Level Orlando TRACON
Sun 10:11:05 AM 28.6719 -81.8869 336° Northwest 111 128 3,900 -29 Descending Jacksonville Center
Sun 10:12:06 AM 28.7011 -81.8961 345° North 108 124 3,900  Level Jacksonville Center
Sun 10:13:07 AM 28.7325 -81.9006 353° North 104 120 3,900  Level Jacksonville Center
Sun 10:14:08 AM 28.7617 -81.9003 360° North 105 121 3,900  Level Jacksonville Center
Sun 10:15:09 AM 28.7908 -81.9000 360° North 105 121 3,900 49 Level Jacksonville Center
Sun 10:16:10 AM 28.8203 -81.9067 349° North 106 122 4,000  Climbing Jacksonville Center
Sun 10:17:11 AM 28.8414 -81.9372 308° West 121 139 3,900 -49 Descending Jacksonville Center
Sun 10:18:12 AM 28.8603 -81.9656 307° West 116 133 3,900  Level Jacksonville Center
Sun 10:19:13 AM 28.8814 -81.9939 310° West 114 131 3,900 52 Level Jacksonville Center
Sun 10:20:08 AM 28.9003 -82.0175 312° West 108 124 4,000 49 Climbing Jacksonville Center
Sun 10:21:16 AM 28.9236 -82.0481 311° West 115 132 4,000  Level Jacksonville Center
Sun 10:22:17 AM 28.9444 -82.0786 308° West 116 133 4,000 -47 Level Jacksonville Center
Sun 10:23:24 AM 28.9656 -82.1094 308° West 118 136 3,900 -47 Descending Jacksonville Center
Sun 10:24:25 AM 28.9867 -82.1378 310° West 117 135 3,900 52 Level Jacksonville Center
Sun 10:25:20 AM 29.0056 -82.1636 310° West 114 131 4,000  Climbing Jacksonville Center
Sun 10:26:28 AM 29.0308 -82.1967 311° West 116 133 3,900 -47 Descending Jacksonville Center
Sun 10:27:29 AM 29.0497 -82.2275 305° West 119 137 3,900 49 Level Jacksonville Center
Sun 10:28:30 AM 29.0686 -82.2606 303° West 120 138 4,000 49 Climbing Jacksonville Center
Sun 10:29:32 AM 29.0878 -82.2892 307° West 111 128 4,000  Level Jacksonville Center
Sun 10:30:33 AM 29.1086 -82.3175 310° West 122 140 4,000 -49 Level Jacksonville Center
Sun 10:31:34 AM 29.1275 -82.3483 305° West 120 138 3,900 -49 Descending Jacksonville Center
Sun 10:32:35 AM 29.1486 -82.3767 310° West 118 136 3,900 49 Level Jacksonville Center
Sun 10:33:36 AM 29.1717 -82.4028 315° West 110 127 4,000 51 Climbing Jacksonville Center
Sun 10:34:32 AM 29.1906 -82.4264 313° West 115 132 4,000  Level Jacksonville Center
Sun 10:35:39 AM 29.2156 -82.4572 313° West 116 133 4,000 -47 Level Jacksonville Center
Sun 10:36:40 AM 29.2325 -82.4856 304° West 114 131 3,900 -52 Descending Jacksonville Center
Sun 10:37:35 AM 29.2472 -82.5167 298° West 117 135 3,900  Level Jacksonville Center
Sun 10:38:36 AM 29.2639 -82.5475 302° West 115 132 3,900 49 Level Jacksonville Center
Sun 10:39:37 AM 29.2828 -82.5758 307° West 113 130 4,000 49 Climbing Jacksonville Center
Sun 10:40:38 AM 29.3017 -82.6117 301° West 114 131 4,000  Level Jacksonville Center
Sun 10:41:39 AM 29.3206 -82.6425 305° West 118 136 4,000  Level Jacksonville Center
Sun 10:43:38 AM 29.3542 -82.6972 305° West 124 143 4,000  Level Jacksonville Center
Sun 10:44:39 AM 29.3728 -82.7281 305° West 124 143 4,000  Level Jacksonville Center
Sun 10:45:39 AM 29.3917 -82.7592 305° West 124 143 4,000  Level Jacksonville Center
Sun 10:46:39 AM 29.4125 -82.7878 310° West 124 143 4,000  Level Jacksonville Center
Sun 10:47:39 AM 29.4336 -82.8164 310° West 119 137 4,000  Level Jacksonville Center
Sun 10:48:39 AM 29.4481 -82.8472 298° West 119 137 4,000  Level Jacksonville Center
Sun 10:49:38 AM 29.4689 -82.8758 310° West 119 137 4,000  Level Jacksonville Center
Sun 10:50:39 AM 29.4856 -82.9092 300° West 119 137 4,000 -50 Level Jacksonville Center
Sun 10:51:38 AM 29.5025 -82.9403 302° West 119 137 3,900  Descending Jacksonville Center
Sun 10:52:39 AM 29.5211 -82.9714 305° West 119 137 4,000 50 Climbing Jacksonville Center
Sun 10:53:39 AM 29.5442 -82.9975 315° West 119 137 4,000  Level Jacksonville Center
Sun 10:54:39 AM 29.5628 -83.0264 307° West 119 137 4,000  Level Jacksonville Center
Sun 10:55:39 AM 29.5858 -83.0550 313° West 119 137 4,000  Level Jacksonville Center
Sun 10:56:39 AM 29.6044 -83.0836 307° West 119 137 4,000  Level Jacksonville Center
Sun 10:57:39 AM 29.6253 -83.1147 308° West 119 137 4,000  Level Jacksonville Center
Sun 10:58:39 AM 29.6442 -83.1458 305° West 119 137 4,000  Level Jacksonville Center
Sun 10:59:39 AM 29.6628 -83.1747 307° West 119 137 4,000 -50 Level Jacksonville Center
Sun 11:00:39 AM 29.6794 -83.2058 302° West 119 137 3,900  Descending Jacksonville Center
Sun 11:01:39 AM 29.6981 -83.2369 305° West 119 137 4,000 50 Climbing Jacksonville Center
Sun 11:02:39 AM 29.7189 -83.2681 308° West 119 137 4,000  Level Jacksonville Center
Sun 11:03:39 AM 29.7356 -83.2967 304° West 119 137 4,000  Level Jacksonville Center
Sun 11:04:39 AM 29.7542 -83.3281 304° West 119 137 4,000 -50 Level Jacksonville Center
Sun 11:05:39 AM 29.7750 -83.3567 310° West 119 137 3,900 -50 Descending Jacksonville Center
Sun 11:06:39 AM 29.7936 -83.3856 307° West 119 137 3,900  Level Jacksonville Center
Sun 11:07:39 AM 29.8103 -83.4144 304° West 119 137 3,900 50 Level Jacksonville Center
Sun 11:08:39 AM 29.8247 -83.4481 296° West 119 137 4,000 50 Climbing Jacksonville Center
Sun 11:09:39 AM 29.8433 -83.4792 305° West 119 137 4,000  Level Jacksonville Center
Sun 11:10:39 AM 29.8619 -83.5081 307° West 119 137 4,000  Level Jacksonville Center
Sun 11:11:39 AM 29.8808 -83.5369 307° West 119 137 4,000  Level Jacksonville Center
Sun 11:12:39 AM 29.8994 -83.5633 309° West 119 137 4,000  Level Jacksonville Center
Sun 11:13:39 AM 29.9200 -83.5947 307° West 119 137 4,000  Level Jacksonville Center
Sun 11:14:39 AM 29.9386 -83.6236 307° West 119 137 4,000  Level Jacksonville Center
Sun 11:15:39 AM 29.9594 -83.6525 310° West 119 137 4,000  Level Jacksonville Center
Sun 11:16:39 AM 29.9758 -83.6839 301° West 119 137 4,000  Level Jacksonville Center
Sun 11:17:39 AM 29.9986 -83.7128 312° West 119 137 4,000  Level Jacksonville Center
Sun 11:18:39 AM 30.0194 -83.7394 312° West 119 137 4,000 50 Level Jacksonville Center
Sun 11:19:39 AM 30.0422 -83.7636 317° Northwest 119 137 4,100  Climbing Jacksonville Center
Sun 11:20:39 AM 30.0567 -83.7972 296° West 114 131 4,000 -50 Descending Jacksonville Center
Sun 11:21:39 AM 30.0711 -83.8311 296° West 114 131 4,000  Level Jacksonville Center
Sun 11:22:39 AM 30.0875 -83.8625 301° West 114 131 4,000  Level Jacksonville Center
Sun 11:24:00 AM 30.1106 -83.8995 306° West  Level FlightAware Approximate
Sun 11:31:00 AM 30.2302 -84.0914 306° West  Level FlightAware Approximate
Sun 11:32:00 AM 30.2473 -84.1188 306° West  Level FlightAware Approximate
Sun 11:33:00 AM 30.2644 -84.1463 306° West  Level FlightAware Approximate
Sun 11:34:00 AM 30.2858 -84.1691 319° Northwest  Level FlightAware Approximate
Sun 11:35:00 AM 30.3060 -84.1933 305° West  Level FlightAware Approximate
Sun 11:36:00 AM 30.3227 -84.2211 305° West  Level FlightAware Approximate
Sun 11:37:00 AM 30.3393 -84.2489 305° West  Level FlightAware Approximate
Sun 11:38:00 AM 30.3544 -84.2777 295° West  Level FlightAware Approximate
Sun 11:39:00 AM 30.3667 -84.3085 295° West  Level FlightAware Approximate
Sun 11:40:00 AM 30.3790 -84.3392 295° West  Level FlightAware Approximate
Sun 11:41:00 AM 30.3833 -84.3500 295° West  Level FlightAware Approximate
Sun 11:42:00 AM 30.3967 -84.3509 North  Level Estimated
Sun 11:43:00 AM 30.3967 -84.3509 177° South  Level Estimated
Sun 11:44:00 AM 30.3967 -84.3509 295° West  Level Estimated
Sun 11:45:00 AM 30.3967 -84.3509 177° South  Level Estimated
Sun 11:46:00 AM 30.3967 -84.3509 177° South  Level Estimated
Sun 11:47:00 AM 30.3967 -84.3509 295° West  Level Estimated
Sun 11:48:00 AM 30.3967 -84.3509 177° South  Level Estimated
Sun 11:49:00 AM 30.3967 -84.3509 177° South  Level Estimated

Login

Don't have an account? Register now (free) for customized features, flight alerts, and more!